Time;durP1;ratioP1;P1;durP2;ratioP2;P2;SDS_P1;SDS_P2;PMS_P1;PMS_P2;Temp;Humidity;BMP_temperature;BMP_pressure;BME280_temperature;BME280_humidity;BME280_pressure;Samples;Min_cycle;Max_cycle;Signal;HPM_P1;HPM_P2
2023/07/17 00:01:49;;;;;;;4.68;1.63;;;;;;;26.67;41.53;99186.97;5014726;28;20249;-91
2023/07/17 00:04:14;;;;;;;4.95;1.90;;;;;;;26.47;41.73;99185.78;4999065;28;20190;-91
2023/07/17 00:06:44;;;;;;;3.00;1.30;;;;;;;26.36;41.53;99178.16;4997995;28;20202;-91
2023/07/17 00:09:11;;;;;;;4.63;1.65;;;;;;;26.34;41.28;99185.53;5014269;28;20643;-91
2023/07/17 00:11:36;;;;;;;6.60;1.60;;;;;;;26.21;41.25;99187.00;5011440;28;20190;-91
2023/07/17 00:14:02;;;;;;;4.22;1.70;;;;;;;26.23;41.80;99176.09;5017242;28;20182;-91
2023/07/17 00:16:29;;;;;;;3.72;1.73;;;;;;;26.15;41.23;99174.25;5017789;28;20216;-91
2023/07/17 00:18:54;;;;;;;3.25;1.90;;;;;;;26.20;41.92;99166.50;5000299;28;20214;-91
2023/07/17 00:21:20;;;;;;;3.25;1.40;;;;;;;26.27;41.92;99171.16;4997676;28;20218;-91
2023/07/17 00:23:47;;;;;;;4.35;2.03;;;;;;;26.38;41.53;99168.06;4997755;28;20175;-91
2023/07/17 00:26:14;;;;;;;4.72;1.80;;;;;;;26.60;41.02;99176.09;4997690;28;20213;-91
2023/07/17 00:28:41;;;;;;;6.68;1.40;;;;;;;26.72;41.53;99171.13;4998112;28;20584;-91
2023/07/17 00:31:07;;;;;;;3.10;1.42;;;;;;;26.77;41.25;99182.22;5013825;28;20191;-91
2023/07/17 00:33:33;;;;;;;3.87;2.00;;;;;;;26.70;41.02;99178.56;5014117;28;20578;-90
2023/07/17 00:36:00;;;;;;;3.33;1.40;;;;;;;26.69;41.88;99174.19;4997798;28;20198;-91
2023/07/17 00:38:27;;;;;;;4.73;2.03;;;;;;;26.54;40.87;99170.63;4997465;28;20179;-91
2023/07/17 00:40:52;;;;;;;13.87;3.80;;;;;;;26.62;41.33;99178.63;4997829;28;20171;-92
2023/07/17 00:43:18;;;;;;;5.10;1.55;;;;;;;26.63;41.69;99169.53;5016338;28;20648;-90
2023/07/17 00:45:46;;;;;;;4.82;2.17;;;;;;;26.53;41.52;99175.16;5017119;28;20280;-91
2023/07/17 00:48:14;;;;;;;3.22;1.52;;;;;;;26.40;41.67;99174.94;5016741;28;20663;-91
2023/07/17 00:50:39;;;;;;;3.80;1.95;;;;;;;26.34;41.69;99172.94;5016671;28;20187;-91
2023/07/17 00:53:08;;;;;;;3.38;1.33;;;;;;;26.21;41.82;99175.41;5016662;28;20189;-91
2023/07/17 00:55:35;;;;;;;8.88;1.95;;;;;;;26.16;42.05;99184.00;4977525;28;20549;-89
2023/07/17 00:58:02;;;;;;;4.82;1.52;;;;;;;26.10;42.01;99179.31;4977686;28;20180;-91
2023/07/17 01:00:27;;;;;;;5.73;2.00;;;;;;;26.14;41.92;99191.41;4993884;28;20179;-91
2023/07/17 01:02:54;;;;;;;6.20;1.97;;;;;;;26.14;42.27;99186.03;4993636;28;20768;-91
2023/07/17 01:05:20;;;;;;;3.97;1.63;;;;;;;26.32;42.19;99187.59;4977310;28;20207;-91
2023/07/17 01:07:47;;;;;;;5.10;1.80;;;;;;;26.50;41.79;99196.19;4982990;28;20198;-92
2023/07/17 01:10:13;;;;;;;3.93;1.63;;;;;;;26.62;41.96;99189.38;5016530;28;20178;-90
2023/07/17 01:12:38;;;;;;;4.97;1.73;;;;;;;26.75;42.38;99190.44;5016322;28;20706;-91
2023/07/17 01:15:04;;;;;;;2.53;1.55;;;;;;;26.72;41.79;99187.28;5016307;28;20226;-91
2023/07/17 01:17:31;;;;;;;4.10;1.97;;;;;;;26.62;42.80;99189.38;5016995;28;20216;-91
2023/07/17 01:19:58;;;;;;;3.42;1.95;;;;;;;26.58;43.52;99186.22;5033865;28;20179;-91
2023/07/17 01:22:33;;;;;;;5.27;1.60;;;;;;;26.55;43.32;99185.72;5016345;28;20264;-91
2023/07/17 01:24:59;;;;;;;3.93;1.80;;;;;;;26.55;44.03;99178.50;5032916;28;20193;-91
2023/07/17 01:27:26;;;;;;;3.90;1.75;;;;;;;26.51;44.04;99187.13;5016362;28;20193;-90
2023/07/17 01:29:52;;;;;;;3.07;1.80;;;;;;;26.45;43.48;99187.81;5016197;28;20197;-91
2023/07/17 01:32:20;;;;;;;4.33;2.20;;;;;;;26.44;43.97;99186.16;5016639;28;20171;-91
2023/07/17 01:34:47;;;;;;;4.13;1.75;;;;;;;26.43;43.47;99190.69;5016202;28;20178;-90
2023/07/17 01:37:13;;;;;;;3.17;1.80;;;;;;;26.46;42.92;99192.19;5033367;28;20174;-91
2023/07/17 01:39:41;;;;;;;4.03;2.27;;;;;;;26.50;43.05;99196.19;5034043;28;20253;-91
2023/07/17 01:42:06;;;;;;;5.03;2.00;;;;;;;26.49;43.60;99194.53;5033528;28;20166;-90
2023/07/17 01:44:33;;;;;;;4.25;1.80;;;;;;;26.27;44.51;99200.72;5018887;28;20644;-90
2023/07/17 01:46:59;;;;;;;3.53;1.30;;;;;;;26.19;44.65;99199.78;5037939;28;20194;-91
2023/07/17 01:49:25;;;;;;;5.65;1.70;;;;;;;26.14;45.77;99195.94;5016929;28;20179;-90
2023/07/17 01:51:50;;;;;;;3.40;1.70;;;;;;;26.14;45.77;99201.31;5001388;28;20170;-91
2023/07/17 01:54:17;;;;;;;4.23;1.97;;;;;;;26.18;45.31;99198.09;5000474;28;20218;-90
2023/07/17 01:56:43;;;;;;;4.30;1.70;;;;;;;26.27;45.16;99198.88;5000645;28;20178;-91
2023/07/17 01:59:09;;;;;;;3.50;1.92;;;;;;;26.32;44.38;99206.41;5000511;28;20205;-91
2023/07/17 02:01:34;;;;;;;5.97;2.10;;;;;;;26.21;45.42;99204.97;5017608;28;20246;-90
2023/07/17 02:04:00;;;;;;;5.33;1.90;;;;;;;26.21;45.36;99221.94;5037196;28;20186;-91
2023/07/17 02:06:28;;;;;;;3.20;1.70;;;;;;;26.16;45.56;99215.41;5019786;28;20273;-91
2023/07/17 02:08:55;;;;;;;2.87;1.43;;;;;;;26.10;45.64;99218.78;5019700;28;20193;-91
2023/07/17 02:11:26;;;;;;;3.60;2.27;;;;;;;26.12;45.43;99220.31;5019774;28;20175;-91
2023/07/17 02:13:52;;;;;;;5.77;3.03;;;;;;;26.07;44.89;99222.63;5037140;28;20169;-91
2023/07/17 02:16:19;;;;;;;4.70;1.77;;;;;;;26.09;45.20;99206.38;5001063;28;20273;-91
2023/07/17 02:18:45;;;;;;;2.97;1.70;;;;;;;26.12;45.07;99214.94;5000391;28;20194;-90
2023/07/17 02:21:10;;;;;;;4.63;2.10;;;;;;;26.05;45.07;99210.41;4999858;28;20175;-90
2023/07/17 02:23:37;;;;;;;5.50;2.28;;;;;;;25.99;45.00;99211.97;5017156;28;20163;-91
2023/07/17 02:26:04;;;;;;;4.17;1.90;;;;;;;25.89;45.34;99213.19;4999574;28;20264;-90
2023/07/17 02:28:31;;;;;;;3.37;2.03;;;;;;;25.89;45.02;99216.69;5000353;28;20175;-90
2023/07/17 02:30:57;;;;;;;3.73;1.90;;;;;;;25.88;45.02;99219.56;5019535;28;20624;-91
2023/07/17 02:33:24;;;;;;;4.77;2.13;;;;;;;25.84;45.19;99226.31;5019422;28;20182;-90
2023/07/17 02:35:51;;;;;;;5.70;2.00;;;;;;;25.75;45.56;99222.84;5019229;28;20174;-91
2023/07/17 02:38:18;;;;;;;5.70;2.10;;;;;;;25.73;46.09;99224.88;5037332;28;20170;-91
2023/07/17 02:40:44;;;;;;;5.10;2.00;;;;;;;25.70;45.81;99219.84;5019090;28;20166;-90
2023/07/17 02:43:09;;;;;;;5.97;1.93;;;;;;;25.65;46.33;99216.84;5036418;28;20196;-90
2023/07/17 02:45:37;;;;;;;4.27;1.97;;;;;;;25.71;46.86;99215.31;5036363;28;20213;-91
2023/07/17 02:48:03;;;;;;;4.23;2.00;;;;;;;25.69;47.34;99220.00;5035552;28;20178;-91
2023/07/17 02:50:30;;;;;;;3.20;1.83;;;;;;;25.72;46.80;99219.66;5018895;28;20571;-91
2023/07/17 02:52:56;;;;;;;7.03;2.40;;;;;;;25.68;46.25;99216.50;5036632;28;20179;-90
2023/07/17 02:55:23;;;;;;;4.03;2.20;;;;;;;25.53;47.27;99207.47;5018764;28;20244;-91
2023/07/17 02:57:49;;;;;;;5.13;1.60;;;;;;;25.49;47.65;99211.53;5018988;28;20209;-92
2023/07/17 03:00:17;;;;;;;4.57;2.30;;;;;;;25.40;48.03;99208.00;5018913;28;20225;-91
2023/07/17 03:02:44;;;;;;;6.70;2.00;;;;;;;25.37;47.61;99197.59;5017697;28;20255;-91
2023/07/17 03:05:10;;;;;;;3.17;1.60;;;;;;;25.35;47.62;99209.53;5015232;28;20668;-91
2023/07/17 03:07:45;;;;;;;6.77;2.20;;;;;;;25.36;47.63;99205.84;4998902;28;20183;-90
2023/07/17 03:10:12;;;;;;;5.47;2.67;;;;;;;25.37;48.44;99210.19;4981376;28;20194;-90
2023/07/17 03:12:37;;;;;;;6.70;1.57;;;;;;;25.37;48.36;99202.13;4979551;28;20206;-91
2023/07/17 03:15:04;;;;;;;4.20;2.07;;;;;;;25.31;48.81;99209.03;4979367;28;20728;-91
2023/07/17 03:17:32;;;;;;;8.63;2.63;;;;;;;25.31;48.36;99208.22;4996956;28;20219;-91
2023/07/17 03:19:59;;;;;;;4.73;2.30;;;;;;;25.32;48.81;99208.00;4979537;28;20618;-90
2023/07/17 03:22:32;;;;;;;4.60;2.50;;;;;;;25.33;49.17;99208.88;4996577;28;20180;-91
2023/07/17 03:24:59;;;;;;;4.03;2.27;;;;;;;25.34;49.20;99211.34;5026865;28;20249;-90
2023/07/17 03:27:24;;;;;;;4.67;2.70;;;;;;;25.36;49.08;99209.38;5018230;28;20178;-90
2023/07/17 03:29:50;;;;;;;3.87;2.03;;;;;;;25.35;49.32;99213.03;5018241;28;20689;-90
2023/07/17 03:32:15;;;;;;;4.70;2.13;;;;;;;25.24;50.37;99215.25;5018067;28;20273;-90
2023/07/17 03:34:41;;;;;;;3.73;2.27;;;;;;;25.23;50.15;99210.91;5035407;28;20166;-91
2023/07/17 03:37:06;;;;;;;5.37;2.87;;;;;;;25.24;50.34;99204.50;5018345;28;20182;-91
2023/07/17 03:39:33;;;;;;;4.30;2.50;;;;;;;25.30;50.13;99209.19;5018065;28;20170;-91
2023/07/17 03:41:58;;;;;;;5.33;2.33;;;;;;;25.26;50.26;99200.66;5035344;28;20171;-91
2023/07/17 03:44:23;;;;;;;4.93;2.87;;;;;;;25.27;50.95;99214.91;5014812;28;20691;-90
2023/07/17 03:46:49;;;;;;;5.47;2.67;;;;;;;25.32;50.43;99215.22;4998251;28;20676;-91
2023/07/17 03:49:15;;;;;;;4.07;1.97;;;;;;;25.35;50.02;99215.72;5014526;28;20190;-91
2023/07/17 03:51:40;;;;;;;4.17;2.33;;;;;;;25.32;50.44;99225.97;4998220;28;20538;-90
2023/07/17 03:54:07;;;;;;;7.20;2.77;;;;;;;25.27;50.48;99217.59;5009761;28;20186;-90
2023/07/17 03:56:35;;;;;;;4.00;2.33;;;;;;;25.20;51.27;99220.13;5009834;28;20186;-90
2023/07/17 03:59:03;;;;;;;4.73;2.67;;;;;;;25.18;51.18;99219.47;4998145;28;20267;-91
2023/07/17 04:01:30;;;;;;;8.00;3.17;;;;;;;25.17;51.38;99223.16;5018686;28;20190;-90
2023/07/17 04:03:57;;;;;;;5.87;3.03;;;;;;;25.26;51.55;99223.97;5002989;28;20655;-91
2023/07/17 04:06:22;;;;;;;6.17;2.90;;;;;;;25.34;51.86;99226.66;4994440;28;20350;-91
2023/07/17 04:08:48;;;;;;;7.30;3.00;;;;;;;25.39;51.82;99224.28;5000444;28;20235;-90
2023/07/17 04:11:14;;;;;;;4.90;2.73;;;;;;;25.40;52.11;99224.09;5023585;28;20171;-91
2023/07/17 04:13:41;;;;;;;6.03;2.80;;;;;;;25.43;52.28;99228.28;5017212;28;20179;-92
2023/07/17 04:16:07;;;;;;;4.63;2.53;;;;;;;25.48;52.55;99223.25;5016976;28;20524;-91
2023/07/17 04:18:32;;;;;;;9.23;3.13;;;;;;;25.52;52.89;99233.47;5017382;28;20174;-92
2023/07/17 04:20:57;;;;;;;5.73;2.50;;;;;;;25.54;53.09;99236.00;5017327;28;20182;-91
2023/07/17 04:23:23;;;;;;;5.47;2.60;;;;;;;25.50;52.97;99242.72;5017357;28;20176;-90
2023/07/17 04:25:49;;;;;;;5.93;2.70;;;;;;;25.59;52.71;99239.00;5017281;28;20707;-91
2023/07/17 04:28:15;;;;;;;6.33;2.90;;;;;;;25.67;52.83;99238.97;5017245;28;20179;-91
2023/07/17 04:30:40;;;;;;;6.20;3.27;;;;;;;25.70;53.32;99244.00;5034611;28;20658;-91
2023/07/17 04:33:06;;;;;;;7.37;2.90;;;;;;;25.75;53.49;99238.94;5017426;28;20185;-93
2023/07/17 04:35:38;;;;;;;3.93;2.67;;;;;;;25.78;53.54;99243.97;5017373;28;20182;-91
2023/07/17 04:38:04;;;;;;;4.77;3.07;;;;;;;25.89;53.41;99245.44;5015700;28;20632;-91
2023/07/17 04:40:30;;;;;;;5.90;3.13;;;;;;;25.96;53.44;99252.63;4978051;28;20262;-91
2023/07/17 04:42:58;;;;;;;4.93;2.93;;;;;;;26.07;53.06;99246.81;4977842;28;20179;-91
2023/07/17 04:45:23;;;;;;;6.03;2.93;;;;;;;26.18;52.23;99249.16;4978102;28;20199;-91
2023/07/17 04:47:49;;;;;;;5.30;2.87;;;;;;;26.27;52.58;99249.09;4977784;28;20226;-92
2023/07/17 04:50:14;;;;;;;4.50;2.87;;;;;;;26.31;53.19;99258.50;4994172;28;20183;-91
2023/07/17 04:52:40;;;;;;;5.03;2.57;;;;;;;26.27;52.50;99254.47;4997749;28;20252;-91
2023/07/17 04:55:06;;;;;;;8.03;2.53;;;;;;;26.17;52.76;99255.56;4997157;28;20179;-90
2023/07/17 04:57:33;;;;;;;6.17;3.40;;;;;;;26.38;52.30;99254.06;4997504;28;20206;-92
2023/07/17 04:59:59;;;;;;;8.87;3.13;;;;;;;26.48;52.50;99252.00;4997381;28;20272;-91
2023/07/17 05:02:24;;;;;;;5.43;2.67;;;;;;;26.55;52.46;99259.16;4997032;28;20218;-91
2023/07/17 05:04:58;;;;;;;6.47;2.93;;;;;;;26.73;51.70;99261.53;4997522;28;20194;-92
2023/07/17 05:07:24;;;;;;;5.20;2.80;;;;;;;26.97;51.33;99263.22;4997111;28;20167;-92
2023/07/17 05:09:49;;;;;;;4.60;2.60;;;;;;;26.89;50.46;99264.13;4997512;28;20625;-92
2023/07/17 05:12:21;;;;;;;7.03;3.20;;;;;;;26.98;50.51;99267.59;5002919;28;20200;-91
2023/07/17 05:14:51;;;;;;;5.73;2.67;;;;;;;27.23;49.95;99267.19;5017469;28;20198;-92
2023/07/17 05:26:44;;;;;;;9.50;3.17;;;;;;;27.94;47.71;99263.03;4999325;28;20207;-91
2023/07/17 05:40:12;;;;;;;;;;;;;;;;;;;;;
2023/07/17 05:57:36;;;;;;;9.18;3.17;;;;;;;29.73;40.20;99274.34;4859838;29;20656;-92
2023/07/17 06:00:01;;;;;;;6.43;2.72;;;;;;;29.89;40.05;99269.66;4818732;29;20203;-92
2023/07/17 06:06:44;;;;;;;;;;;;;;;;;;;;;
2023/07/17 06:09:10;;;;;;;5.20;2.67;;;;;;;30.08;41.09;99267.06;4950225;28;20191;-91
2023/07/17 06:11:38;;;;;;;5.93;2.80;;;;;;;29.99;41.04;99256.59;4996269;28;20701;-92
2023/07/17 06:17:22;;;;;;;4.25;2.33;;;;;;;30.01;41.14;99260.78;5003171;28;20198;-93
2023/07/17 06:19:57;;;;;;;4.95;2.47;;;;;;;30.17;40.54;99260.41;4996589;28;20598;-93
2023/07/17 06:22:23;;;;;;;5.78;2.53;;;;;;;30.26;41.66;99263.78;4996681;28;20189;-91
2023/07/17 06:24:54;;;;;;;5.10;2.10;;;;;;;30.33;41.40;99264.63;4996218;28;20183;-91
2023/07/17 06:27:29;;;;;;;12.55;2.97;;;;;;;30.52;39.77;99253.06;5013005;28;20184;-93
2023/07/17 06:30:35;;;;;;;4.60;2.30;;;;;;;30.65;40.27;99246.84;5012420;28;20183;-92
2023/07/17 06:33:34;;;;;;;5.05;2.20;;;;;;;30.95;40.89;99242.72;4998889;28;20203;-92
2023/07/17 06:36:15;;;;;;;4.32;2.05;;;;;;;31.00;38.52;99249.16;5016531;28;20187;-92
2023/07/17 06:38:43;;;;;;;5.80;2.45;;;;;;;30.84;38.25;99246.88;5018099;28;20182;-92
2023/07/17 06:41:09;;;;;;;6.38;2.80;;;;;;;31.10;38.97;99245.22;5019061;28;20262;-91
2023/07/17 06:43:34;;;;;;;3.97;2.20;;;;;;;31.28;39.71;99242.69;5016045;28;20637;-92
2023/07/17 06:46:08;;;;;;;5.30;2.30;;;;;;;31.45;37.69;99249.31;4999061;28;20730;-93
2023/07/17 06:48:34;;;;;;;4.55;2.33;;;;;;;31.33;36.98;99237.47;5015441;28;20198;-92
2023/07/17 06:51:09;;;;;;;5.65;2.63;;;;;;;31.36;38.32;99237.91;5014755;28;20183;-92
2023/07/17 06:53:34;;;;;;;5.05;2.53;;;;;;;31.38;37.24;99235.81;5006268;28;20711;-91
2023/07/17 06:56:00;;;;;;;4.70;2.58;;;;;;;31.72;37.99;99232.00;4999557;28;20213;-90
2023/07/17 06:58:27;;;;;;;6.88;2.92;;;;;;;31.84;37.42;99238.41;4999316;28;20187;-93
2023/07/17 07:01:10;;;;;;;6.97;2.38;;;;;;;31.97;36.61;99232.94;4999010;28;20205;-95
2023/07/17 07:03:53;;;;;;;4.82;2.50;;;;;;;32.30;36.38;99226.53;5000378;28;20202;-92
2023/07/17 07:06:45;;;;;;;3.80;2.17;;;;;;;32.29;36.22;99235.72;4999409;28;20207;-93
2023/07/17 07:09:10;;;;;;;6.25;2.25;;;;;;;32.67;36.25;99228.44;5016047;28;20195;-90
2023/07/17 07:11:36;;;;;;;4.90;2.00;;;;;;;32.94;35.46;99232.56;5016341;28;20691;-92
2023/07/17 07:14:32;;;;;;;5.10;1.77;;;;;;;33.10;35.10;99223.91;4999353;28;20708;-91
2023/07/17 07:17:08;;;;;;;3.45;2.22;;;;;;;33.41;34.13;99225.72;4993818;28;20196;-91
2023/07/17 07:19:45;;;;;;;3.92;2.33;;;;;;;33.52;33.18;99235.00;4976361;28;20195;-94
2023/07/17 07:22:10;;;;;;;4.60;2.17;;;;;;;33.42;33.99;99228.19;4993146;28;20172;-92
2023/07/17 07:24:41;;;;;;;5.57;2.65;;;;;;;33.63;34.25;99220.69;4976317;28;20190;-92
2023/07/17 07:27:10;;;;;;;4.03;2.15;;;;;;;33.74;33.46;99226.19;4976101;28;20200;-93
2023/07/17 07:29:38;;;;;;;5.38;1.85;;;;;;;33.91;33.73;99229.16;4974479;28;20630;-91
2023/07/17 07:32:39;;;;;;;5.22;2.13;;;;;;;34.07;33.47;99220.38;4976687;28;20247;-91
2023/07/17 07:39:09;;;;;;;;;;;;;;;;;;;;;
2023/07/17 07:48:00;;;;;;;3.92;2.30;;;;;;;35.10;32.29;99220.94;4880855;29;20286;-91
2023/07/17 07:54:07;;;;;;;6.18;2.17;;;;;;;35.56;31.25;99215.47;4876943;29;20183;-91
2023/07/17 08:07:40;;;;;;;;;;;;;;;;;;;;;
2023/07/17 08:14:39;;;;;;;10.27;2.30;;;;;;;36.81;30.54;99199.94;4824622;29;20209;-92
2023/07/17 08:17:25;;;;;;;3.63;2.10;;;;;;;36.94;29.91;99204.25;4800553;29;20236;-92
2023/07/17 08:31:34;;;;;;;3.67;2.30;;;;;;;37.53;29.01;99197.25;4742037;30;20650;-93
2023/07/17 08:47:53;;;;;;;5.50;2.70;;;;;;;38.01;29.08;99172.69;4808241;29;20218;-91
2023/07/17 08:54:13;;;;;;;;;;;;;;;;;;;;;
2023/07/17 08:57:52;;;;;;;5.32;2.47;;;;;;;38.57;28.21;99165.06;4866245;29;20387;-93
2023/07/17 09:00:42;;;;;;;;;;;;;;;;;;;;;
2023/07/17 09:10:25;;;;;;;7.85;2.42;;;;;;;39.21;29.11;99158.47;4916457;29;20327;-92
2023/07/17 09:34:37;;;;;;;4.15;2.03;;;;;;;40.20;25.70;99144.59;4704702;29;20692;-92
2023/07/17 09:44:57;;;;;;;;;;;;;;;;;;;;;
2023/07/17 09:47:49;;;;;;;6.95;2.72;;;;;;;39.05;26.89;99132.00;4928119;28;20227;-93
2023/07/17 09:50:38;;;;;;;5.43;2.83;;;;;;;38.75;26.59;99142.78;4971203;28;20639;-92
2023/07/17 09:53:38;;;;;;;4.55;2.50;;;;;;;39.06;27.50;99133.66;4970515;28;20192;-92
2023/07/17 09:56:13;;;;;;;4.05;2.35;;;;;;;39.18;26.86;99127.94;4970927;28;20264;-92
2023/07/17 09:58:53;;;;;;;7.07;2.40;;;;;;;39.13;26.56;99131.50;4971581;28;20195;-92
2023/07/17 10:01:38;;;;;;;4.93;2.33;;;;;;;39.50;27.39;99127.88;4981051;28;20554;-92
2023/07/17 10:04:11;;;;;;;8.68;3.25;;;;;;;39.89;27.20;99126.38;4972970;28;20229;-92
2023/07/17 10:10:30;;;;;;;5.65;2.30;;;;;;;40.38;25.24;99119.38;4938095;29;20277;-92
2023/07/17 10:13:05;;;;;;;5.30;2.58;;;;;;;39.45;25.80;99125.09;4938321;29;20193;-93
2023/07/17 10:16:03;;;;;;;4.10;2.05;;;;;;;39.71;26.80;99118.66;4919376;29;20187;-92
2023/07/17 10:18:30;;;;;;;6.13;2.58;;;;;;;39.50;25.44;99103.16;4938853;29;20573;-92
2023/07/17 10:21:04;;;;;;;6.60;2.38;;;;;;;39.61;26.69;99104.88;4976987;28;20300;-92
2023/07/17 10:23:33;;;;;;;7.25;3.08;;;;;;;39.97;25.34;99101.13;4974456;28;20185;-92
2023/07/17 10:26:35;;;;;;;4.78;2.63;;;;;;;40.07;26.32;99095.69;4957934;29;20219;-90
2023/07/17 10:29:24;;;;;;;;;;;;;;;;;;;;;
2023/07/17 10:31:49;;;;;;;4.68;2.40;;;;;;;40.62;25.54;99085.84;4978124;28;20385;-91
2023/07/17 10:34:15;;;;;;;5.32;2.25;;;;;;;40.66;25.22;99075.94;4978273;28;20702;-91
2023/07/17 10:36:45;;;;;;;3.63;2.35;;;;;;;40.93;25.19;99091.06;4976804;28;20267;-90
2023/07/17 10:39:26;;;;;;;4.70;2.70;;;;;;;41.13;25.15;99084.66;4978069;28;20184;-91
2023/07/17 10:41:56;;;;;;;4.60;2.00;;;;;;;41.02;24.09;99081.13;4976675;28;20180;-91
2023/07/17 10:44:22;;;;;;;5.18;2.15;;;;;;;41.09;25.15;99080.84;4976618;28;20184;-90
2023/07/17 10:46:47;;;;;;;6.40;2.58;;;;;;;41.42;24.85;99074.69;4977367;28;20204;-91
2023/07/17 10:49:17;;;;;;;4.38;2.38;;;;;;;41.59;25.40;99074.31;4976852;28;20191;-91
2023/07/17 10:51:47;;;;;;;4.32;2.67;;;;;;;41.47;24.67;99074.66;4976597;28;20185;-91
2023/07/17 10:54:14;;;;;;;4.88;2.60;;;;;;;41.21;23.46;99070.31;4977203;28;20610;-89
2023/07/17 10:56:43;;;;;;;3.70;2.30;;;;;;;41.36;24.62;99064.78;4977564;28;20180;-91
2023/07/17 10:59:08;;;;;;;6.35;3.25;;;;;;;40.81;24.39;99064.91;4976266;28;20184;-90
2023/07/17 11:01:34;;;;;;;3.80;2.35;;;;;;;40.15;24.71;99061.41;4977026;28;20188;-89
2023/07/17 11:04:00;;;;;;;4.75;2.35;;;;;;;39.90;24.79;99056.66;4995703;28;20191;-91
2023/07/17 11:06:27;;;;;;;5.72;2.63;;;;;;;40.63;25.58;99060.84;4995828;28;20211;-91
2023/07/17 11:08:54;;;;;;;4.22;2.42;;;;;;;40.43;24.16;99055.34;4996597;28;20176;-91
2023/07/17 11:11:20;;;;;;;5.40;3.25;;;;;;;40.78;24.94;99058.03;4996684;28;20249;-91
2023/07/17 11:13:47;;;;;;;3.95;2.53;;;;;;;41.05;23.93;99046.72;4996712;28;20179;-89
2023/07/17 11:16:13;;;;;;;6.00;2.60;;;;;;;41.19;24.75;99052.47;4980659;28;20180;-90
2023/07/17 11:18:46;;;;;;;5.45;3.10;;;;;;;41.47;25.09;99049.88;4996661;28;20179;-91
2023/07/17 11:21:16;;;;;;;6.35;2.60;;;;;;;41.78;24.13;99039.53;4996425;28;20214;-90
2023/07/17 11:23:56;;;;;;;4.53;2.60;;;;;;;42.22;23.71;99039.50;4979752;28;20207;-91
2023/07/17 11:26:24;;;;;;;4.97;3.17;;;;;;;42.32;24.15;99028.41;4996101;28;20290;-89
2023/07/17 11:28:54;;;;;;;5.47;3.08;;;;;;;42.54;23.54;99031.50;4996391;28;20184;-90
2023/07/17 11:31:34;;;;;;;4.93;3.05;;;;;;;42.44;24.65;99025.25;4996206;28;20168;-89
2023/07/17 11:34:04;;;;;;;6.30;2.80;;;;;;;41.97;25.20;99025.91;5009906;28;20186;-90
2023/07/17 11:36:47;;;;;;;5.97;3.03;;;;;;;41.90;24.58;99028.16;5015791;28;20187;-90
2023/07/17 11:39:17;;;;;;;6.15;3.00;;;;;;;42.27;24.00;99020.19;4998240;28;20191;-89
2023/07/17 11:41:53;;;;;;;6.00;3.33;;;;;;;42.63;23.66;99023.44;5015477;28;20248;-88
2023/07/17 11:44:25;;;;;;;8.15;3.15;;;;;;;42.94;22.97;99022.00;5014383;28;20166;-90
2023/07/17 11:46:53;;;;;;;6.60;3.30;;;;;;;43.05;23.19;99022.69;4978036;28;20306;-89
2023/07/17 11:49:18;;;;;;;4.72;2.55;;;;;;;43.11;25.07;99018.78;4988594;28;20203;-90
2023/07/17 11:51:52;;;;;;;5.75;3.35;;;;;;;43.15;23.83;99008.78;4973780;28;20184;-94
2023/07/17 11:54:18;;;;;;;5.35;3.30;;;;;;;42.29;23.33;99017.13;4992759;28;20257;-90
2023/07/17 11:56:45;;;;;;;5.68;2.97;;;;;;;42.41;24.31;99015.63;4967423;28;20226;-90
2023/07/17 11:59:24;;;;;;;6.80;3.13;;;;;;;41.94;23.95;99015.44;4970068;28;20198;-89
2023/07/17 12:01:50;;;;;;;5.47;3.08;;;;;;;42.35;23.62;99010.47;4988236;28;20182;-90
2023/07/17 12:04:26;;;;;;;4.80;2.80;;;;;;;41.55;24.30;99010.75;4984376;28;20195;-90
2023/07/17 12:06:53;;;;;;;7.45;3.00;;;;;;;41.65;25.80;99007.09;4978745;28;20223;-91
2023/07/17 12:09:20;;;;;;;6.38;3.20;;;;;;;41.79;24.71;99012.81;4984393;28;20218;-91
2023/07/17 12:11:48;;;;;;;4.55;3.00;;;;;;;41.97;24.04;98999.19;4974497;28;20220;-90
2023/07/17 12:14:17;;;;;;;6.32;2.83;;;;;;;42.14;24.90;99004.31;4984458;28;20207;-91
2023/07/17 12:16:43;;;;;;;11.32;2.65;;;;;;;42.65;23.56;98996.38;4960340;28;20224;-91
2023/07/17 12:19:09;;;;;;;7.45;3.13;;;;;;;42.69;24.18;99000.22;4977829;28;20183;-90
2023/07/17 12:21:34;;;;;;;5.70;2.92;;;;;;;42.57;24.66;99002.53;5013848;28;20628;-90
2023/07/17 12:24:00;;;;;;;6.60;2.75;;;;;;;42.80;24.92;98994.28;4979468;28;20183;-90
2023/07/17 12:26:25;;;;;;;4.25;2.60;;;;;;;42.39;23.73;98984.78;5004468;28;20617;-90
2023/07/17 12:28:51;;;;;;;5.72;2.72;;;;;;;42.92;23.67;98984.75;5014547;28;20559;-91
2023/07/17 12:31:17;;;;;;;6.13;2.60;;;;;;;43.05;22.80;98978.56;4997367;28;20186;-90
2023/07/17 12:33:43;;;;;;;6.28;3.03;;;;;;;43.41;22.60;98983.31;5014616;28;20233;-90
2023/07/17 12:36:09;;;;;;;6.32;2.90;;;;;;;43.05;23.08;98986.84;5014388;28;20647;-90
2023/07/17 12:38:34;;;;;;;6.93;2.90;;;;;;;43.12;23.49;98976.25;5014297;28;20258;-90
2023/07/17 12:41:00;;;;;;;4.32;2.90;;;;;;;43.27;23.12;98976.84;5013944;28;20571;-91
2023/07/17 12:43:25;;;;;;;5.80;2.88;;;;;;;43.43;21.48;98974.72;5014266;28;20171;-91
2023/07/17 12:45:51;;;;;;;5.38;2.97;;;;;;;43.31;21.66;98974.34;5014092;28;20609;-89
2023/07/17 12:48:16;;;;;;;5.88;2.60;;;;;;;43.36;22.69;98974.28;5013957;28;20206;-89
2023/07/17 12:50:42;;;;;;;4.53;2.88;;;;;;;43.57;21.72;98961.81;4996834;28;20696;-90
2023/07/17 12:53:07;;;;;;;5.00;2.55;;;;;;;43.37;23.47;98962.16;5014377;28;20174;-88
2023/07/17 12:55:33;;;;;;;5.22;2.90;;;;;;;42.07;23.85;98967.97;5014285;28;20166;-91
2023/07/17 12:57:58;;;;;;;4.47;2.47;;;;;;;42.55;22.48;98961.50;5014081;28;20224;-90
2023/07/17 13:00:24;;;;;;;4.72;2.92;;;;;;;42.33;23.32;98966.63;4996523;28;20190;-90
2023/07/17 13:02:49;;;;;;;5.18;2.58;;;;;;;42.46;23.87;98963.19;5013970;28;20175;-90
2023/07/17 13:05:15;;;;;;;5.25;2.75;;;;;;;42.32;22.10;98954.00;5014247;28;20549;-91
2023/07/17 13:07:40;;;;;;;5.13;2.92;;;;;;;42.69;22.60;98956.88;5014244;28;20174;-91
2023/07/17 13:10:07;;;;;;;4.28;2.67;;;;;;;42.94;22.54;98949.47;5013773;28;20585;-91
2023/07/17 13:12:33;;;;;;;7.75;2.90;;;;;;;42.94;22.87;98949.47;5013815;28;20190;-90
2023/07/17 13:14:59;;;;;;;4.95;2.65;;;;;;;42.62;22.61;98948.16;5014047;28;20174;-91
2023/07/17 13:17:24;;;;;;;4.80;3.22;;;;;;;42.32;23.63;98950.41;5013710;28;20236;-90
2023/07/17 13:19:50;;;;;;;4.10;2.65;;;;;;;42.89;22.71;98946.72;5014043;28;20568;-91
2023/07/17 13:22:16;;;;;;;4.57;2.55;;;;;;;42.04;23.23;98941.81;5013047;28;20628;-90
2023/07/17 13:24:42;;;;;;;6.70;3.45;;;;;;;41.39;23.58;98948.66;5013650;28;20209;-89
2023/07/17 13:27:07;;;;;;;5.93;2.90;;;;;;;40.88;25.38;98952.72;5013534;28;20215;-90
2023/07/17 13:29:33;;;;;;;5.47;3.03;;;;;;;41.72;23.56;98941.56;4996505;28;20214;-90
2023/07/17 13:31:59;;;;;;;6.40;2.92;;;;;;;42.27;23.84;98936.69;4996252;28;20229;-90
2023/07/17 13:34:29;;;;;;;8.00;3.45;;;;;;;42.49;23.93;98940.56;5013538;28;20186;-91
2023/07/17 13:36:55;;;;;;;4.30;2.55;;;;;;;42.57;22.59;98942.72;5013845;28;20174;-90
2023/07/17 13:39:23;;;;;;;4.88;2.90;;;;;;;42.00;23.56;98939.94;5013380;28;20187;-91
2023/07/17 13:41:49;;;;;;;4.55;2.60;;;;;;;42.09;24.13;98924.41;5013815;28;20202;-90
2023/07/17 13:44:16;;;;;;;5.18;3.10;;;;;;;42.42;23.91;98926.31;4996271;28;20252;-90
2023/07/17 13:46:43;;;;;;;6.45;2.72;;;;;;;41.94;23.56;98917.13;5013762;28;20218;-90
2023/07/17 13:49:10;;;;;;;4.15;2.90;;;;;;;42.25;23.41;98914.91;5012416;28;20183;-90
2023/07/17 13:51:35;;;;;;;4.00;2.55;;;;;;;42.51;24.25;98909.97;5013452;28;20218;-91
2023/07/17 13:54:01;;;;;;;4.72;2.60;;;;;;;42.51;23.50;98916.28;4993968;28;20692;-90
2023/07/17 13:56:27;;;;;;;5.13;2.67;;;;;;;42.67;22.70;98908.66;4974420;28;20181;-90
2023/07/17 13:58:53;;;;;;;4.78;2.55;;;;;;;42.84;22.97;98907.09;4974349;28;20604;-91
2023/07/17 14:01:19;;;;;;;4.25;2.45;;;;;;;42.94;23.30;98903.38;4957612;28;20183;-92
2023/07/17 14:03:44;;;;;;;4.10;2.65;;;;;;;43.11;22.62;98902.88;5012975;28;20277;-90
2023/07/17 14:06:10;;;;;;;5.95;2.92;;;;;;;42.31;21.74;98896.41;5013258;28;20248;-90
2023/07/17 14:08:35;;;;;;;7.65;2.50;;;;;;;42.14;23.16;98905.94;4996747;28;20178;-90
2023/07/17 14:11:01;;;;;;;4.13;2.45;;;;;;;41.83;23.34;98898.22;5013251;28;20182;-89
2023/07/17 14:13:26;;;;;;;7.13;2.75;;;;;;;42.17;23.86;98899.84;5013129;28;20179;-91
2023/07/17 14:15:52;;;;;;;4.75;2.70;;;;;;;41.95;24.08;98895.94;4995899;28;20178;-90